createdAt,value
2023-04-25T00:09:10.141Z,10.42
2023-04-25T00:19:15.905Z,10.47
2023-04-25T00:29:21.720Z,10.45
2023-04-25T00:39:27.435Z,10.30
2023-04-25T00:49:33.154Z,10.08
2023-04-25T00:59:40.240Z,9.98
2023-04-25T01:09:46.048Z,9.83
2023-04-25T01:19:52.486Z,9.67
2023-04-25T01:29:59.118Z,9.52
2023-04-25T01:40:06.961Z,9.47
2023-04-25T01:50:12.316Z,9.44
2023-04-25T02:00:18.907Z,9.34
2023-04-25T02:10:24.584Z,9.27
2023-04-25T02:20:31.234Z,9.26
2023-04-25T02:30:37.358Z,9.30
2023-04-25T02:40:43.216Z,9.39
2023-04-25T02:50:48.863Z,9.50
2023-04-25T03:00:54.650Z,9.56
2023-04-25T03:11:00.571Z,9.50
2023-04-25T03:21:06.471Z,9.37
2023-04-25T03:31:12.196Z,9.19
2023-04-25T03:41:17.970Z,9.02
2023-04-25T03:51:23.973Z,8.79
2023-04-25T04:01:30.217Z,8.64
2023-04-25T04:11:37.842Z,8.64
2023-04-25T04:21:43.602Z,8.59
2023-04-25T04:31:49.866Z,8.72
2023-04-25T04:41:55.720Z,8.83
2023-04-25T04:52:01.941Z,8.81
2023-04-25T05:02:07.711Z,8.85
2023-04-25T05:12:13.854Z,9.04
2023-04-25T05:22:19.477Z,9.59
2023-04-25T05:32:26.219Z,9.70
2023-04-25T05:42:32.102Z,10.29
2023-04-25T05:52:37.986Z,10.90
2023-04-25T06:02:44.367Z,10.69
2023-04-25T06:12:50.745Z,10.15
2023-04-25T06:22:56.606Z,10.03
2023-04-25T06:33:02.483Z,10.15
2023-04-25T06:43:08.352Z,10.62
2023-04-25T06:53:14.143Z,10.52
2023-04-25T07:03:20.095Z,10.35
2023-04-25T07:13:26.052Z,10.29
2023-04-25T07:23:32.192Z,10.93
2023-04-25T07:33:38.368Z,11.21
2023-04-25T07:43:44.144Z,11.12
2023-04-25T07:53:50.735Z,12.32
2023-04-25T08:03:57.067Z,13.43
2023-04-25T08:14:03.141Z,13.73
2023-04-25T08:24:09.690Z,13.29
2023-04-25T08:34:15.341Z,13.30
2023-04-25T08:44:21.975Z,12.69
2023-04-25T08:54:35.666Z,12.89
2023-04-25T09:04:42.998Z,12.83
2023-04-25T09:15:06.390Z,12.83
2023-04-25T09:25:16.775Z,13.00
2023-04-25T09:35:29.140Z,12.79
2023-04-25T09:45:42.506Z,12.56
2023-04-25T09:55:49.575Z,12.96
2023-04-25T10:05:55.710Z,12.99
2023-04-25T10:16:07.181Z,13.63
2023-04-25T10:26:14.390Z,13.95
2023-04-25T10:36:23.539Z,13.21
2023-04-25T10:46:31.905Z,13.14
2023-04-25T10:56:41.727Z,12.58
2023-04-25T11:07:06.588Z,12.61
2023-04-25T11:17:13.652Z,12.87
2023-04-25T11:27:20.056Z,12.40
2023-04-25T11:37:26.096Z,12.28
2023-04-25T11:47:35.905Z,12.08
2023-04-25T11:57:44.030Z,11.89
2023-04-25T12:07:50.133Z,11.83
2023-04-25T12:17:56.509Z,12.07
2023-04-25T12:28:19.710Z,11.87
2023-04-25T12:38:27.234Z,12.00
2023-04-25T12:48:33.059Z,12.70
2023-04-25T12:58:38.860Z,12.20
2023-04-25T13:08:44.728Z,11.69
2023-04-25T13:18:50.411Z,11.64
2023-04-25T13:28:56.194Z,11.88
2023-04-25T13:39:02.001Z,11.95
2023-04-25T13:49:12.709Z,12.01
2023-04-25T13:59:19.154Z,11.60
2023-04-25T14:09:26.697Z,11.42
2023-04-25T14:19:32.749Z,11.39
2023-04-25T14:29:39.202Z,11.37
2023-04-25T14:39:46.415Z,11.01
2023-04-25T14:49:55.286Z,10.70
2023-04-25T15:00:01.806Z,10.57
2023-04-25T15:10:14.518Z,10.53
2023-04-25T15:20:20.761Z,10.51
2023-04-25T15:30:27.072Z,10.40
2023-04-25T15:40:33.316Z,10.31
2023-04-25T15:50:39.117Z,10.27
2023-04-25T16:00:44.913Z,10.22
2023-04-25T16:10:50.808Z,10.12
2023-04-25T16:20:56.528Z,10.01
2023-04-25T16:31:02.790Z,9.86
2023-04-25T16:41:09.324Z,9.76
2023-04-25T16:51:15.385Z,9.69
2023-04-25T17:01:21.383Z,9.54
2023-04-25T17:11:27.331Z,9.46
2023-04-25T17:21:33.441Z,9.40
2023-04-25T17:31:39.113Z,9.33
2023-04-25T17:41:44.806Z,9.21
2023-04-25T17:51:50.629Z,9.10
2023-04-25T18:01:58.702Z,9.02
2023-04-25T18:12:04.837Z,8.95
2023-04-25T18:22:12.415Z,8.93
2023-04-25T18:32:18.208Z,9.01
2023-04-25T18:42:24.038Z,8.99
2023-04-25T18:52:29.685Z,8.94
2023-04-25T19:02:37.008Z,8.93
2023-04-25T19:12:42.921Z,8.75
2023-04-25T19:22:49.430Z,8.37
2023-04-25T19:32:56.661Z,8.06
2023-04-25T19:43:02.719Z,7.85
2023-04-25T19:53:09.395Z,7.70
2023-04-25T20:03:16.575Z,7.62
2023-04-25T20:13:22.918Z,7.55
2023-04-25T20:23:28.708Z,7.48
2023-04-25T20:33:35.782Z,7.40
2023-04-25T20:43:42.456Z,7.33
2023-04-25T20:53:48.687Z,7.30
2023-04-25T21:03:55.048Z,7.31
2023-04-25T21:14:01.619Z,7.31
2023-04-25T21:24:10.064Z,7.31
2023-04-25T21:34:15.932Z,7.27
2023-04-25T21:44:21.691Z,7.23
2023-04-25T21:54:28.111Z,7.20
2023-04-25T22:04:33.974Z,7.12
2023-04-25T22:14:41.646Z,7.05
2023-04-25T22:24:49.712Z,6.97
2023-04-25T22:34:55.406Z,6.86
2023-04-25T22:45:02.048Z,6.78
2023-04-25T22:55:10.408Z,6.68
2023-04-25T23:05:16.833Z,6.45
2023-04-25T23:15:22.599Z,6.06
2023-04-25T23:25:28.358Z,5.73
2023-04-25T23:35:37.984Z,5.36
2023-04-25T23:45:43.995Z,4.96
2023-04-25T23:55:49.790Z,4.69
